메인 페이지
METAR-TAF:

METAR-TAF

공항 :

Bauru, 상파울루, 브라질

위도: 22-19S, 경도: 049-04W, 고도: 590m

현재 날씨관측

예보는 1 시간 39분 전, 21:00시(UTC)에 발표되었습니다.
서남서4kt
온도 28°C
습도 51%
기압 1015 hPa
시정 10km 이상
1500m 미만 상공 구름 및 적란운 없음

METAR: SBBU 022100Z 24004KT CAVOK 28/17 Q1015

시각: 19:39 (22:39 UTC)

예보

예보는 6 시간 9분 전, 16:30시(UTC)에 발표되었습니다.
예보 대상 시간: 02일 18시부터 03일 06시까지 (UTC)
남동8kt
시정 10km 이상
고도 4000ft 상공 구름 보통
전환 중
02일 21시부터 02일 23시까지 (UTC)
시정 10km 이상
1500m 미만 상공 구름 및 적란운 없음

TAF: SBBU 021630Z 0218/0306 13008KT 9999 SCT040 TX28/0218Z TN18/0305Z BECMG 0221/0223 CAVOK RMK PGL

4,000개 이상의 공항 관측 자료 및 예보 (METAR 및 TAF 보고).

지도상에서 검색 가능한 기상관측소가 노란 점과 빨간 점으로 표시되어 있습니다.

기상관측소 명을 보려면 표시 위로 마우스를 이동하세요.

날씨 관측과 예보를 보려면 클릭하세요.

지도 변경 : 확대하려면 엑스 표시가 있는 녹색 버튼, 축소하려면 빼기 표시가 있는 녹색 버튼, 다음 페이지의 지도를 보려면 녹색 화살표를 클릭하세요.


METAR-TAF: